Airfield :







YOU CAN JOIN US ON...

 
LOGIN :

Register | Disclaimer

   EN    FR    IT 

 









Legend :    VFR   Marginal VFR   IFR   Intensive IFR   Very Intensive IFR
Visi :
Ceiling :
>= 8 km
>= 3000ft
5 to 8 km
1000 to 3000 ft
1500m to 5 km
500 to 1000 ft
800 to 1500m
200 to 500 ft
< 800m
< 200 ft
Symbols :   Thunderstorms  Fog  Heavy snow  Heavy precipitations  Wind > 20 kt






- Airport Elevation : 930 ft


KEFK - Newport State

CURRENT METAR :
  • 240518Z AUTO 22006KT 10SM SCT044 SCT055 OVC070 09/03 A3006 RMK AO2 T00890029

EXPIRED METARs :
  • 240455Z AUTO 22006KT 10SM SCT043 SCT049 OVC060 09/03 A3005 RMK AO2 T00900025 401430087
  • 240437Z AUTO 24008KT 10SM OVC060 09/02 A3004 RMK AO2 T00930020
  • 240416Z AUTO 25013G17KT 10SM SCT050 BKN070 09/02 A3003 RMK AO2 T00920018
  • 240357Z AUTO 25006KT 10SM CLR 09/01 A3003 RMK AO2 T00900012
  • 240336Z AUTO 00000KT 10SM SCT070 09/01 A3002 RMK AO2 T00900011
  • 240317Z AUTO 00000KT 10SM SCT047 SCT055 SCT070 09/01 A3002 RMK AO2 T00910011
  • 240256Z AUTO 00000KT 10SM SCT049 SCT055 09/01 A3002 RMK AO2 T00940007
  • 240237Z AUTO 25009G15KT 10SM CLR 09/01 A3002 RMK AO2 T00920007

TAF N/A



MET'MAP, your aeronautical weather chart ! - Copyright ORBIFLY December 2007 - Disclaimer

ORBIFLY MET'MAP TEAM :

Programming & Development : Alexandra Zaïnal
Concept & Development : Baudouin d'Aumeries
Co-Development & Prog : Marc-Olivier Méhu
Technical & hardware support : Manuel Goepfert

Contact : metmap@orbifly.com




SOURCES & CREDITS :

   NOAA